Home PIREPS Pireps

Flight BEL5561

  • Submitted By: AndrĂ© Vincent
  • Departure Airport: Bruxelles National (EBBR)
  • Arrival Airport: Tegel (EDDT)
  • Aircraft: A319-112 (OO-SSG)
  • Flight Time: 01.13
  • Date Submitted: 09/10/2016
  • Status: Accepted
Flight Details
Gross Revenue:
(112 load / € 86.00 per unit
€ 9,632.00
Fuel Cost:
(5623 fuel used @ 5.1 / unit)
€ 28,677.30

Additional Log Information:

View Log

Aircraft Used in flight is Boeing 737-800 sabena paint
18:17 Brakes are On
18:17 Brakes are Released
18:23 You Took off @ 206 Knots and Flaps at Position 2
Departure Weather
EBBR 091550Z 01004KT 330V050 9999 FEW048 12/03 Q1025 NOSIGrn
18:23 Landing Gear Up @ 212 Knots and 240 Feet
19:09 You exceeded maximum bank angle
19:13 Above FL100 you need to switch of the landing lights
19:13 Above FL100 you need to switch of the landing lights
19:21 Landing Gear Down @ 142 Knots and 2980 Feet
19:26 You Landed @ 123 Knots and with -650 Vertical Speed
Arrival Weather
EDDT 091650Z 29003KT 9999 FEW011 SCT045 BKN060 08/08 Q1023 NOSIGrn
19:26 Your Landing was very hard
19:30 Brakes are On
19:31 Brussels Bel-Track1.0.1.2

Route Map

Corporate About Us Our Team Vacancies Information Fleet Route Network Rules and Regulations Operations Flight Schedules Event Center Tours Partners IVAO Vatsim Acars dev FSCB

fb Users Online Belgium Martin Witters, Belgium Bennie Peeters, Belgium Jos Viville,
3 Pilot(s) and 149 Guest(s) Online
CMS by phpVMS - Design by Crazycreatives.com - Copyright © 2018 - Brussels Airlines Virtual